Carlo Caruso

Chefscout - Empoli
5 Mär 2028
Sonntag
Verarbeitung

Persönlichkeit

Anpassungsfähigkeit (14) Ehrgeiz (11) Kontroverse (4) Loyalität (6) Druck (7) Professionalität (7) Fairness (7) Temperament (13)

Profil

Trainerstil Demokratisch
Lizenz Kontinentale A
Entschlossenheit 6
Menschenführung 11
Motivation 7
Disziplin 7
Arbeitszufriedenheit
100%
Ermüdung
0%
Rolle Chefscout
Gehalt 37.1K p/W
Vertrag 14.03.2030

Leistung

Verhalten Gut
Trainingseffektivität
43%
Spielerentwicklung
30%
Verletzungsprävention
45%
Taktische Umsetzung
40%

Letzte Ereignisse

Nahm an einer Scouting-Besprechung teil 35T her
Sprach sich gegen ein Transferziel aus 35T her
Nimmt an Fortbildung teil 42T her
Nahm an einer Scouting-Besprechung teil 42T her
Nimmt an Fortbildung teil 42T her
Nimmt an Fortbildung teil 42T her
Nimmt an Fortbildung teil 42T her
Nimmt an Fortbildung teil 49T her

Aktuell beobachtet

66
Spieler Verein Status Fähigkeit Vertrauen Beobachtet Zuletzt beobachtet Letzte Stimme
Lorenzo Bordo Monopoli Aktiv 100 / 105 55% 1 24.01.2028 -
Mattia Sandri Casertana Aktiv 99 / 104 55% 1 17.01.2028 -
Daniele Liotti Casertana Aktiv 91 / 99 55% 1 10.01.2028 -
Chemsdine Talbi Sunderland Aktiv 139 / 148 40% 1 10.01.2028 -
Sorba Thomas Stoke City Aktiv 130 / 133 40% 1 10.01.2028 -
Lucan Louw US Bougouni Aktiv 69 / 94 40% 4 31.08.2027 -
Ignacio Pérez Universidad Catolica Aktiv 91 / 102 40% 3 31.08.2027 -
Pau Cubarsí Barcelona Aktiv 162 / 168 40% 1 30.08.2027 -
Jaydee Canvot Crystal Palace Aktiv 135 / 145 40% 1 28.08.2027 -
Christ Inao Oulaï Fiorentina Aktiv 136 / 144 40% 1 28.08.2027 -
Peter Ademola Bendel Insurance Aktiv 83 / 97 40% 2 27.08.2027 -
Evgeniy Novykh Vitebsk Aktiv 92 / 88 40% 1 27.08.2027 -
Lucas Bergvall Tottenham Aktiv 151 / 156 40% 1 26.08.2027 -
Ibrahim Sabiu Bendel Insurance Aktiv 84 / 89 40% 3 25.08.2027 -
Yury Oyarzo Racing Aktiv 77 / 105 40% 1 25.08.2027 -
Muhammedali Reimov Lokomotiv Aktiv 120 / 108 40% 1 24.08.2027 -
Olaniyi Saheed Kwara United Aktiv 104 / 105 40% 3 23.08.2027 -
Elias Baum Eintracht Frankfurt Aktiv 136 / 134 40% 1 23.08.2027 -
Kwadwo Atiemo Wa All Stars Aktiv 77 / 87 40% 1 21.08.2027 -
Adam Boufandar Pro Vercelli Aktiv 88 / 94 40% 1 19.08.2027 -
Peyton Miller FC Cincinnati Aktiv 119 / 111 40% 2 18.08.2027 -
Nazareno Roselli Defensa y Justicia Aktiv 107 / 119 40% 2 15.08.2027 -
Azizbek To'lqinbekov Sogdiana Aktiv 108 / 103 40% 1 14.08.2027 -
Ravshan Xayrullayev Bukhara Aktiv 92 / 98 40% 1 12.08.2027 -
Miguel Figueiredo Benfica Aktiv 114 / 122 40% 1 04.08.2027 -
Tommaso Benvenuti HNK Rijeka Aktiv 88 / 97 40% 1 02.08.2027 -
Martim Cunha Porto Aktiv 105 / 117 40% 2 01.08.2027 -
Rhys Walters Port Vale Aktiv 104 / 115 40% 1 28.07.2027 -
Nikolay Sotnikov Arsenal Dzerzhinsk Aktiv 86 / 86 40% 1 27.07.2027 -
Mohamed Moussa Koïta Persijap Aktiv 87 / 95 40% 1 25.07.2027 -
Dennis Konney US Bougouba Aktiv 63 / 85 40% 1 24.07.2027 -
Gustavo Albarracín Alavés Aktiv 108 / 122 40% 1 22.07.2027 -
Siphesihle Sithole Afrique Foot Elite Aktiv 97 / 84 40% 1 20.07.2027 -
Alen Korošec ND Gorica Aktiv 100 / 106 40% 1 17.07.2027 -
Ivan Lykholit Torreense Aktiv 76 / 93 40% 1 17.07.2027 -
Rafik el Arguioui Utrecht Aktiv 121 / 119 40% 4 15.07.2027 -
Sergey Chernov Zenit Aktiv 88 / 90 40% 5 09.07.2027 Ablehnen
Lucas Velásquez Huachipato Aktiv 101 / 101 40% 2 04.07.2027 -
Sascha Britschgi Udinese Aktiv 126 / 132 40% 2 23.06.2027 -
Demjan Iljev SKA Khabarovsk Aktiv 70 / 88 40% 2 22.06.2027 -
Eddy Kouadio Fiorentina Aktiv 95 / 106 40% 1 22.06.2027 -
Maeson King Portsmouth Aktiv 121 / 114 40% 3 21.06.2027 -
Moncef Zekri Sporting CP Aktiv 107 / 104 40% 1 17.06.2027 -
Bernardo Lima Porto Aktiv 94 / 110 40% 1 16.06.2027 -
Alin Kumer Čelik Genoa Aktiv 86 / 100 40% 2 12.06.2027 -
Godwin Oham Warri Wolves Aktiv 105 / 90 40% 1 05.06.2027 -
James Dornelly Peterborough United Aktiv 97 / 106 40% 5 30.01.2027 -
Andrea Bonetti Renate Aktiv 101 / 96 55% 1 25.01.2027 -
Louis Page West Ham United Aktiv 118 / 135 40% 1 24.01.2027 -
Marvin Akahomen Basel Aktiv 102 / 107 40% 1 24.01.2027 -
Daniel Banjaqui Benfica Aktiv 101 / 116 40% 1 23.01.2027 -
Joseph Jones Kryvbas Aktiv 99 / 92 40% 1 22.01.2027 -
Facundo Di Biasi Gimnasia La Plata Aktiv 104 / 120 40% 3 21.01.2027 -
Mathis Amougou RC Strasbourg Aktiv 124 / 127 40% 1 05.01.2027 -
Axel Frugone Defensor Sporting Aktiv 98 / 123 40% 1 29.08.2026 -
Lautaro Vargas Unión de Santa Fe Aktiv 110 / 134 40% 1 29.08.2026 -
Eliás Montiel Pachuca Aktiv 114 / 137 40% 1 26.08.2026 -
Darryl Bakola Sassuolo Aktiv 107 / 114 55% 1 24.08.2026 -
Alexandro Maidana Talleres Aktiv 128 / 115 40% 1 24.08.2026 -
Santiago Fernández Talleres Aktiv 111 / 126 40% 1 15.08.2026 -
Mauricio Amaro Atlanta United FC Aktiv 123 / 131 40% 1 14.08.2026 -
Pablo Ferreira Platense Aktiv 96 / 121 40% 1 14.08.2026 -
Juan Giménez Rosario Central Aktiv 100 / 112 40% 1 05.08.2026 -
Michele Cerofolini Bari Aktiv 135 / 125 40% 1 03.08.2026 -
Tobias Slotsager Hellas Verona Aktiv 106 / 115 40% 1 02.08.2026 -
Lucas Quintana Cerro Porteno Aktiv 123 / 115 40% 1 02.08.2026 -